Terminal Aerodrome Forecast
Issued by NWS

Home | Current Version | Previous Version | Text Only | Print | Product List | Glossary On
Versions: 1 2 3 4 5 6 7 8 9 10 11 12 13 14 15 16 17 18 19 20 21 22 23
000
FTUS46 KMTR 041500 AAA
TAFSFO
TAF AMD
KSFO 041500Z 0415/0518 29008KT P6SM FEW008 BKN012
     FM041730 30009KT P6SM FEW012
     FM042200 29018G23KT P6SM FEW010
     FM050300 28015KT P6SM FEW008
     FM050800 27006KT P6SM BKN009=

USA.gov is the U.S. government's official web portal to all federal, state and local government web resources and services.